Thorshofn Airport

Airport
ICAO code: 
BITN
IATA Code: 
THO
Summary
ICAO Region: 
NAT
Territory: 
Location: 
, Norourland Eystra
Serving: 
Thorshofn
Elevation: 
65 ft
Coordinates: 
Aerial View: 
66° 13' 6.6" N, 15° 20' 8.16" W
Metar
Observation
BITN 031400Z 31010KT 9999 BKN018 SCT025 00/M04 Q0986
Station
Þórshöfn Airport
Date/Time
2021-12-03 14:00:00
Wind direction
310°
Wind speed
10 kts
Lowest cloud amount
broken clouds
Temperature
0°C
Dew point
-4°C
Humidity
74%
QNH
986 hPa
Weather condition
n/a

Runways

Designator Length Width Surface Rops
2/20 1199 30 BIT No/No
Airport map: 
Aerial View: 

SKYbrary Partners:

Safety knowledge contributed by: